sensor_id;sensor_type;location;lat;lon;timestamp;pressure;altitude;pressure_sealevel;temperature;humidity
71504;BME280;59323;50.874;7.028;2023-06-10T00:01:39;100945.75;;;20.59;61.06
71504;BME280;59323;50.874;7.028;2023-06-10T00:04:04;100947.81;;;20.55;61.48
71504;BME280;59323;50.874;7.028;2023-06-10T00:06:30;100951.09;;;20.50;61.56
71504;BME280;59323;50.874;7.028;2023-06-10T00:09:02;100940.19;;;20.43;61.89
71504;BME280;59323;50.874;7.028;2023-06-10T00:11:30;100946.19;;;20.38;62.17
71504;BME280;59323;50.874;7.028;2023-06-10T00:13:55;100935.38;;;20.27;62.11
71504;BME280;59323;50.874;7.028;2023-06-10T00:16:20;100940.97;;;20.23;62.43
71504;BME280;59323;50.874;7.028;2023-06-10T00:18:46;100943.44;;;20.18;62.78
71504;BME280;59323;50.874;7.028;2023-06-10T00:21:12;100947.09;;;20.11;62.91
71504;BME280;59323;50.874;7.028;2023-06-10T00:23:38;100944.03;;;20.06;63.21
71504;BME280;59323;50.874;7.028;2023-06-10T00:26:04;100944.53;;;20.01;63.58
71504;BME280;59323;50.874;7.028;2023-06-10T00:28:29;100948.56;;;19.96;63.60
71504;BME280;59323;50.874;7.028;2023-06-10T00:30:55;100941.63;;;19.88;63.84
71504;BME280;59323;50.874;7.028;2023-06-10T00:33:21;100947.22;;;19.84;64.42
71504;BME280;59323;50.874;7.028;2023-06-10T00:35:46;100946.16;;;19.78;64.80
71504;BME280;59323;50.874;7.028;2023-06-10T00:38:13;100952.16;;;19.73;65.00
71504;BME280;59323;50.874;7.028;2023-06-10T00:40:40;100946.34;;;19.68;65.08
71504;BME280;59323;50.874;7.028;2023-06-10T00:43:06;100951.16;;;19.63;65.29
71504;BME280;59323;50.874;7.028;2023-06-10T00:45:31;100950.06;;;19.57;65.36
71504;BME280;59323;50.874;7.028;2023-06-10T00:47:58;100950.56;;;19.52;65.78
71504;BME280;59323;50.874;7.028;2023-06-10T00:50:23;100945.47;;;19.47;66.20
71504;BME280;59323;50.874;7.028;2023-06-10T00:52:49;100963.25;;;19.43;66.42
71504;BME280;59323;50.874;7.028;2023-06-10T00:55:16;100948.41;;;19.37;66.27
71504;BME280;59323;50.874;7.028;2023-06-10T00:57:44;100957.94;;;19.32;66.84
71504;BME280;59323;50.874;7.028;2023-06-10T01:00:10;100951.34;;;19.26;66.96
71504;BME280;59323;50.874;7.028;2023-06-10T01:02:36;100962.06;;;19.20;67.22
71504;BME280;59323;50.874;7.028;2023-06-10T01:05:02;100955.03;;;19.16;67.30
71504;BME280;59323;50.874;7.028;2023-06-10T01:07:35;100959.06;;;19.11;67.64
71504;BME280;59323;50.874;7.028;2023-06-10T01:10:10;100954.78;;;19.07;68.03
71504;BME280;59323;50.874;7.028;2023-06-10T01:12:55;100962.75;;;19.01;68.01
71504;BME280;59323;50.874;7.028;2023-06-10T01:15:24;100952.63;;;18.94;68.33
71504;BME280;59323;50.874;7.028;2023-06-10T01:20:27;100959.03;;;18.84;68.83
71504;BME280;59323;50.874;7.028;2023-06-10T01:22:57;100957.53;;;18.80;69.05
71504;BME280;59323;50.874;7.028;2023-06-10T01:25:27;100961.53;;;18.75;69.15
71504;BME280;59323;50.874;7.028;2023-06-10T01:28:03;100964.75;;;18.70;69.43
71504;BME280;59323;50.874;7.028;2023-06-10T01:30:39;100959.69;;;18.65;69.62
71504;BME280;59323;50.874;7.028;2023-06-10T01:33:07;100955.44;;;18.57;69.93
71504;BME280;59323;50.874;7.028;2023-06-10T01:35:36;100961.78;;;18.54;70.41
71504;BME280;59323;50.874;7.028;2023-06-10T01:38:02;100955.53;;;18.50;70.42
71504;BME280;59323;50.874;7.028;2023-06-10T01:40:29;100960.31;;;18.46;70.43
71504;BME280;59323;50.874;7.028;2023-06-10T01:42:55;100955.63;;;18.43;70.83
71504;BME280;59323;50.874;7.028;2023-06-10T01:45:20;100951.38;;;18.38;70.83
71504;BME280;59323;50.874;7.028;2023-06-10T01:47:46;100958.47;;;18.35;70.85
71504;BME280;59323;50.874;7.028;2023-06-10T01:50:11;100960.50;;;18.31;71.22
71504;BME280;59323;50.874;7.028;2023-06-10T01:52:37;100960.53;;;18.28;71.57
71504;BME280;59323;50.874;7.028;2023-06-10T01:55:03;100957.84;;;18.24;71.55
71504;BME280;59323;50.874;7.028;2023-06-10T01:57:29;100962.97;;;18.19;72.05
71504;BME280;59323;50.874;7.028;2023-06-10T01:59:54;100961.81;;;18.16;71.79
71504;BME280;59323;50.874;7.028;2023-06-10T02:02:20;100955.22;;;18.10;72.06
71504;BME280;59323;50.874;7.028;2023-06-10T02:04:47;100957.22;;;18.06;72.13
71504;BME280;59323;50.874;7.028;2023-06-10T02:07:12;100962.75;;;18.02;72.56
71504;BME280;59323;50.874;7.028;2023-06-10T02:09:37;100959.28;;;17.98;72.48
71504;BME280;59323;50.874;7.028;2023-06-10T02:12:03;100956.97;;;17.93;73.13
71504;BME280;59323;50.874;7.028;2023-06-10T02:14:30;100964.47;;;17.89;72.94
71504;BME280;59323;50.874;7.028;2023-06-10T02:16:56;100968.03;;;17.86;73.04
71504;BME280;59323;50.874;7.028;2023-06-10T02:19:22;100968.50;;;17.81;73.60
71504;BME280;59323;50.874;7.028;2023-06-10T02:21:48;100968.91;;;17.80;73.58
71504;BME280;59323;50.874;7.028;2023-06-10T02:24:14;100976.41;;;17.76;73.77
71504;BME280;59323;50.874;7.028;2023-06-10T02:26:40;100971.72;;;17.72;73.91
71504;BME280;59323;50.874;7.028;2023-06-10T02:29:05;100973.72;;;17.68;73.89
71504;BME280;59323;50.874;7.028;2023-06-10T02:31:31;100977.66;;;17.64;74.39
71504;BME280;59323;50.874;7.028;2023-06-10T02:33:56;100974.56;;;17.58;74.38
71504;BME280;59323;50.874;7.028;2023-06-10T02:36:22;100979.28;;;17.58;74.34
71504;BME280;59323;50.874;7.028;2023-06-10T02:38:49;100980.06;;;17.55;74.85
71504;BME280;59323;50.874;7.028;2023-06-10T02:41:14;100977.34;;;17.51;74.65
71504;BME280;59323;50.874;7.028;2023-06-10T02:43:40;100980.13;;;17.48;75.04
71504;BME280;59323;50.874;7.028;2023-06-10T02:46:05;100973.88;;;17.43;75.61
71504;BME280;59323;50.874;7.028;2023-06-10T02:48:30;100980.19;;;17.40;75.52
71504;BME280;59323;50.874;7.028;2023-06-10T02:50:56;100976.28;;;17.38;75.73
71504;BME280;59323;50.874;7.028;2023-06-10T02:53:21;100973.19;;;17.32;75.78
71504;BME280;59323;50.874;7.028;2023-06-10T02:55:47;100977.53;;;17.30;76.08
71504;BME280;59323;50.874;7.028;2023-06-10T02:58:12;100979.53;;;17.26;75.99
71504;BME280;59323;50.874;7.028;2023-06-10T03:00:37;100983.84;;;17.23;76.49
71504;BME280;59323;50.874;7.028;2023-06-10T03:03:05;100979.94;;;17.21;76.25
71504;BME280;59323;50.874;7.028;2023-06-10T03:05:31;100983.13;;;17.16;77.25
71504;BME280;59323;50.874;7.028;2023-06-10T03:07:56;100985.09;;;17.15;77.33
71504;BME280;59323;50.874;7.028;2023-06-10T03:10:21;100979.22;;;17.13;76.98
71504;BME280;59323;50.874;7.028;2023-06-10T03:12:47;100979.25;;;17.09;77.32
71504;BME280;59323;50.874;7.028;2023-06-10T03:15:12;100985.13;;;17.08;77.06
71504;BME280;59323;50.874;7.028;2023-06-10T03:17:38;100980.06;;;17.06;77.12
71504;BME280;59323;50.874;7.028;2023-06-10T03:20:03;100980.84;;;17.03;77.87
71504;BME280;59323;50.874;7.028;2023-06-10T03:22:35;100984.41;;;17.00;77.90
71504;BME280;59323;50.874;7.028;2023-06-10T03:25:01;100986.00;;;16.98;78.13
71504;BME280;59323;50.874;7.028;2023-06-10T03:27:26;100995.41;;;16.97;78.17
71504;BME280;59323;50.874;7.028;2023-06-10T03:29:52;100986.00;;;16.94;78.41
71504;BME280;59323;50.874;7.028;2023-06-10T03:32:17;100999.34;;;16.92;77.98
71504;BME280;59323;50.874;7.028;2023-06-10T03:34:43;101004.44;;;16.90;78.22
71504;BME280;59323;50.874;7.028;2023-06-10T03:37:10;101002.50;;;16.87;78.63
71504;BME280;59323;50.874;7.028;2023-06-10T03:39:35;100999.38;;;16.85;78.26
71504;BME280;59323;50.874;7.028;2023-06-10T03:42:00;100998.22;;;16.83;78.51
71504;BME280;59323;50.874;7.028;2023-06-10T03:44:26;101010.38;;;16.82;78.71
71504;BME280;59323;50.874;7.028;2023-06-10T03:46:51;101005.28;;;16.80;78.49
71504;BME280;59323;50.874;7.028;2023-06-10T03:49:17;101004.91;;;16.78;78.60
71504;BME280;59323;50.874;7.028;2023-06-10T03:51:42;101011.97;;;16.75;78.75
71504;BME280;59323;50.874;7.028;2023-06-10T03:54:08;101011.19;;;16.75;79.01
71504;BME280;59323;50.874;7.028;2023-06-10T03:56:34;101008.44;;;16.75;79.08
71504;BME280;59323;50.874;7.028;2023-06-10T03:59:00;101004.91;;;16.74;79.02
71504;BME280;59323;50.874;7.028;2023-06-10T04:01:25;101004.91;;;16.74;79.32
71504;BME280;59323;50.874;7.028;2023-06-10T04:03:51;101015.91;;;16.74;79.22
71504;BME280;59323;50.874;7.028;2023-06-10T04:06:19;101009.63;;;16.74;79.18
71504;BME280;59323;50.874;7.028;2023-06-10T04:08:44;101008.44;;;16.75;78.83
71504;BME280;59323;50.874;7.028;2023-06-10T04:11:09;101013.13;;;16.78;79.16
71504;BME280;59323;50.874;7.028;2023-06-10T04:13:35;101013.50;;;16.80;79.02
71504;BME280;59323;50.874;7.028;2023-06-10T04:16:01;101010.75;;;16.84;78.83
71504;BME280;59323;50.874;7.028;2023-06-10T04:18:27;101021.72;;;16.84;78.83
71504;BME280;59323;50.874;7.028;2023-06-10T04:20:53;101022.09;;;16.86;78.80
71504;BME280;59323;50.874;7.028;2023-06-10T04:23:18;101022.88;;;16.90;79.31
71504;BME280;59323;50.874;7.028;2023-06-10T04:25:43;101026.81;;;16.92;78.71
71504;BME280;59323;50.874;7.028;2023-06-10T04:28:09;101027.56;;;17.00;78.88
71504;BME280;59323;50.874;7.028;2023-06-10T04:30:34;101027.50;;;17.10;78.73
71504;BME280;59323;50.874;7.028;2023-06-10T04:32:59;101029.75;;;17.23;77.89
71504;BME280;59323;50.874;7.028;2023-06-10T04:35:25;101032.03;;;17.35;77.76
71504;BME280;59323;50.874;7.028;2023-06-10T04:37:53;101037.06;;;17.47;77.76
71504;BME280;59323;50.874;7.028;2023-06-10T04:40:18;101027.94;;;17.61;77.64
71504;BME280;59323;50.874;7.028;2023-06-10T04:42:43;101034.88;;;17.80;76.99
71504;BME280;59323;50.874;7.028;2023-06-10T04:45:09;101033.91;;;18.00;76.49
71504;BME280;59323;50.874;7.028;2023-06-10T04:47:34;101028.59;;;18.20;76.04
71504;BME280;59323;50.874;7.028;2023-06-10T04:50:01;101029.94;;;18.43;75.11
71504;BME280;59323;50.874;7.028;2023-06-10T04:52:26;101024.63;;;18.62;74.17
71504;BME280;59323;50.874;7.028;2023-06-10T04:54:52;101031.81;;;18.83;74.17
71504;BME280;59323;50.874;7.028;2023-06-10T04:57:18;101034.31;;;19.05;72.96
71504;BME280;59323;50.874;7.028;2023-06-10T04:59:45;101034.41;;;19.24;72.46
71504;BME280;59323;50.874;7.028;2023-06-10T05:02:10;101033.66;;;19.47;70.79
71504;BME280;59323;50.874;7.028;2023-06-10T05:04:36;101038.91;;;19.69;69.79
71504;BME280;59323;50.874;7.028;2023-06-10T05:07:01;101036.19;;;19.88;69.13
71504;BME280;59323;50.874;7.028;2023-06-10T05:09:26;101036.59;;;20.10;69.25
71504;BME280;59323;50.874;7.028;2023-06-10T05:11:52;101034.66;;;20.31;68.21
71504;BME280;59323;50.874;7.028;2023-06-10T05:14:18;101037.38;;;20.54;67.49
71504;BME280;59323;50.874;7.028;2023-06-10T05:16:45;101042.47;;;20.75;67.13
71504;BME280;59323;50.874;7.028;2023-06-10T05:19:11;101036.84;;;20.99;66.80
71504;BME280;59323;50.874;7.028;2023-06-10T05:21:36;101032.56;;;21.14;63.83
71504;BME280;59323;50.874;7.028;2023-06-10T05:24:02;101037.78;;;21.28;61.60
71504;BME280;59323;50.874;7.028;2023-06-10T05:26:27;101040.94;;;21.46;61.95
71504;BME280;59323;50.874;7.028;2023-06-10T05:28:54;101034.88;;;21.68;61.85
71504;BME280;59323;50.874;7.028;2023-06-10T05:31:19;101038.84;;;21.83;60.26
71504;BME280;59323;50.874;7.028;2023-06-10T05:33:45;101037.69;;;21.97;59.34
71504;BME280;59323;50.874;7.028;2023-06-10T05:36:10;101046.88;;;22.10;58.31
71504;BME280;59323;50.874;7.028;2023-06-10T05:38:35;101041.31;;;22.26;57.94
71504;BME280;59323;50.874;7.028;2023-06-10T05:41:01;101047.56;;;22.43;55.85
71504;BME280;59323;50.874;7.028;2023-06-10T05:43:26;101046.50;;;22.53;54.66
71504;BME280;59323;50.874;7.028;2023-06-10T05:45:52;101045.63;;;22.56;53.93
71504;BME280;59323;50.874;7.028;2023-06-10T05:48:17;101046.25;;;22.76;54.22
71504;BME280;59323;50.874;7.028;2023-06-10T05:50:45;101049.94;;;22.86;53.91
71504;BME280;59323;50.874;7.028;2023-06-10T05:53:13;101049.53;;;23.00;53.34
71504;BME280;59323;50.874;7.028;2023-06-10T05:55:44;101048.31;;;23.14;52.36
71504;BME280;59323;50.874;7.028;2023-06-10T05:58:10;101057.06;;;23.25;52.32
71504;BME280;59323;50.874;7.028;2023-06-10T06:00:37;101052.06;;;23.33;51.78
71504;BME280;59323;50.874;7.028;2023-06-10T06:03:03;101055.19;;;23.48;52.51
71504;BME280;59323;50.874;7.028;2023-06-10T06:05:28;101051.66;;;23.60;50.23
71504;BME280;59323;50.874;7.028;2023-06-10T06:08:00;101056.81;;;23.83;50.36
71504;BME280;59323;50.874;7.028;2023-06-10T06:10:25;101055.75;;;24.02;50.04
71504;BME280;59323;50.874;7.028;2023-06-10T06:12:50;101053.50;;;24.23;49.50
71504;BME280;59323;50.874;7.028;2023-06-10T06:15:16;101053.91;;;24.34;46.01
71504;BME280;59323;50.874;7.028;2023-06-10T06:17:41;101051.47;;;24.36;47.82
71504;BME280;59323;50.874;7.028;2023-06-10T06:20:07;101053.47;;;24.36;47.24
71504;BME280;59323;50.874;7.028;2023-06-10T06:22:32;101061.03;;;24.35;46.48
71504;BME280;59323;50.874;7.028;2023-06-10T06:24:58;101050.22;;;24.59;47.11
71504;BME280;59323;50.874;7.028;2023-06-10T06:27:23;101061.53;;;24.64;47.30
71504;BME280;59323;50.874;7.028;2023-06-10T06:29:48;101050.31;;;24.46;45.98
71504;BME280;59323;50.874;7.028;2023-06-10T06:32:15;101051.13;;;24.34;45.94
71504;BME280;59323;50.874;7.028;2023-06-10T06:34:41;101049.97;;;24.44;46.76
71504;BME280;59323;50.874;7.028;2023-06-10T06:37:06;101053.19;;;24.64;46.40
71504;BME280;59323;50.874;7.028;2023-06-10T06:39:31;101058.13;;;24.82;46.43
71504;BME280;59323;50.874;7.028;2023-06-10T06:41:57;101064.72;;;24.98;45.84
71504;BME280;59323;50.874;7.028;2023-06-10T06:44:22;101064.47;;;25.14;46.18
71504;BME280;59323;50.874;7.028;2023-06-10T06:46:47;101066.13;;;25.02;45.02
71504;BME280;59323;50.874;7.028;2023-06-10T06:49:14;101063.47;;;25.29;46.02
71504;BME280;59323;50.874;7.028;2023-06-10T06:51:39;101066.16;;;25.42;44.75
71504;BME280;59323;50.874;7.028;2023-06-10T06:54:05;101069.75;;;25.61;44.64
71504;BME280;59323;50.874;7.028;2023-06-10T06:56:31;101064.44;;;25.85;43.97
71504;BME280;59323;50.874;7.028;2023-06-10T06:58:56;101069.22;;;25.84;43.56
71504;BME280;59323;50.874;7.028;2023-06-10T07:01:21;101070.66;;;26.16;44.81
71504;BME280;59323;50.874;7.028;2023-06-10T07:03:47;101071.91;;;26.25;43.57
71504;BME280;59323;50.874;7.028;2023-06-10T07:06:13;101061.25;;;26.41;43.50
71504;BME280;59323;50.874;7.028;2023-06-10T07:08:38;101066.81;;;26.41;43.36
71504;BME280;59323;50.874;7.028;2023-06-10T07:11:03;101061.50;;;26.62;43.15
71504;BME280;59323;50.874;7.028;2023-06-10T07:13:29;101061.22;;;26.69;41.47
71504;BME280;59323;50.874;7.028;2023-06-10T07:15:54;101065.50;;;26.88;42.27
71504;BME280;59323;50.874;7.028;2023-06-10T07:18:20;101066.72;;;26.96;41.29
71504;BME280;59323;50.874;7.028;2023-06-10T07:20:45;101069.50;;;26.96;41.31
71504;BME280;59323;50.874;7.028;2023-06-10T07:23:11;101066.09;;;27.01;40.85
71504;BME280;59323;50.874;7.028;2023-06-10T07:25:36;101069.16;;;27.12;42.10
71504;BME280;59323;50.874;7.028;2023-06-10T07:28:02;101058.44;;;27.20;40.21
71504;BME280;59323;50.874;7.028;2023-06-10T07:30:28;101059.41;;;27.08;40.08
71504;BME280;59323;50.874;7.028;2023-06-10T07:32:53;101059.63;;;27.28;40.24
71504;BME280;59323;50.874;7.028;2023-06-10T07:35:19;101070.13;;;27.42;39.72
71504;BME280;59323;50.874;7.028;2023-06-10T07:37:46;101065.25;;;27.61;39.85
71504;BME280;59323;50.874;7.028;2023-06-10T07:40:12;101064.59;;;27.66;40.00
71504;BME280;59323;50.874;7.028;2023-06-10T07:42:37;101059.44;;;27.74;39.22
71504;BME280;59323;50.874;7.028;2023-06-10T07:45:03;101064.38;;;27.46;39.14
71504;BME280;59323;50.874;7.028;2023-06-10T07:47:30;101057.81;;;27.58;40.10
71504;BME280;59323;50.874;7.028;2023-06-10T07:49:55;101060.03;;;27.78;39.53
71504;BME280;59323;50.874;7.028;2023-06-10T07:52:21;101055.09;;;27.97;39.57
71504;BME280;59323;50.874;7.028;2023-06-10T07:54:46;101050.69;;;28.05;38.43
71504;BME280;59323;50.874;7.028;2023-06-10T07:57:11;101056.22;;;28.14;38.53
71504;BME280;59323;50.874;7.028;2023-06-10T07:59:37;101053.78;;;28.46;39.84
71504;BME280;59323;50.874;7.028;2023-06-10T08:02:03;101060.38;;;28.72;38.22
71504;BME280;59323;50.874;7.028;2023-06-10T08:04:28;101069.91;;;28.65;36.94
71504;BME280;59323;50.874;7.028;2023-06-10T08:06:56;101066.16;;;28.83;38.35
71504;BME280;59323;50.874;7.028;2023-06-10T08:09:21;101065.22;;;28.86;37.71
71504;BME280;59323;50.874;7.028;2023-06-10T08:11:48;101068.97;;;28.98;37.74
71504;BME280;59323;50.874;7.028;2023-06-10T08:14:13;101057.66;;;29.07;37.44
71504;BME280;59323;50.874;7.028;2023-06-10T08:16:39;101060.41;;;29.37;37.26
71504;BME280;59323;50.874;7.028;2023-06-10T08:19:04;101066.03;;;29.22;36.64
71504;BME280;59323;50.874;7.028;2023-06-10T08:21:30;101069.00;;;29.48;37.25
71504;BME280;59323;50.874;7.028;2023-06-10T08:23:55;101074.97;;;29.76;37.43
71504;BME280;59323;50.874;7.028;2023-06-10T08:26:20;101069.09;;;29.74;35.77
71504;BME280;59323;50.874;7.028;2023-06-10T08:28:46;101070.72;;;29.80;36.64
71504;BME280;59323;50.874;7.028;2023-06-10T08:31:11;101069.00;;;30.03;36.92
71504;BME280;59323;50.874;7.028;2023-06-10T08:33:36;101067.31;;;30.11;35.86
71504;BME280;59323;50.874;7.028;2023-06-10T08:36:02;101068.75;;;30.27;36.09
71504;BME280;59323;50.874;7.028;2023-06-10T08:38:30;101070.25;;;30.22;35.09
71504;BME280;59323;50.874;7.028;2023-06-10T08:40:59;101069.13;;;30.14;35.60
71504;BME280;59323;50.874;7.028;2023-06-10T08:43:36;101063.16;;;30.27;35.90
71504;BME280;59323;50.874;7.028;2023-06-10T08:46:03;101064.53;;;30.37;34.60
71504;BME280;59323;50.874;7.028;2023-06-10T08:48:29;101066.94;;;30.24;35.09
71504;BME280;59323;50.874;7.028;2023-06-10T08:50:57;101061.72;;;30.11;34.34
71504;BME280;59323;50.874;7.028;2023-06-10T08:53:23;101069.63;;;30.13;35.05
71504;BME280;59323;50.874;7.028;2023-06-10T08:55:53;101070.03;;;30.26;35.67
71504;BME280;59323;50.874;7.028;2023-06-10T08:58:24;101068.09;;;30.38;34.68
71504;BME280;59323;50.874;7.028;2023-06-10T09:00:51;101066.13;;;30.44;34.92
71504;BME280;59323;50.874;7.028;2023-06-10T09:03:16;101059.09;;;30.54;34.64
71504;BME280;59323;50.874;7.028;2023-06-10T09:05:42;101062.97;;;30.56;35.01
71504;BME280;59323;50.874;7.028;2023-06-10T09:08:08;101056.38;;;30.59;34.81
71504;BME280;59323;50.874;7.028;2023-06-10T09:10:36;101055.94;;;30.67;34.31
71504;BME280;59323;50.874;7.028;2023-06-10T09:13:02;101049.94;;;30.79;34.75
71504;BME280;59323;50.874;7.028;2023-06-10T09:15:27;101052.06;;;30.90;33.82
71504;BME280;59323;50.874;7.028;2023-06-10T09:17:53;101054.66;;;30.99;33.51
71504;BME280;59323;50.874;7.028;2023-06-10T09:20:18;101047.94;;;30.85;33.50
71504;BME280;59323;50.874;7.028;2023-06-10T09:22:44;101047.75;;;30.95;34.10
71504;BME280;59323;50.874;7.028;2023-06-10T09:25:13;101051.78;;;31.19;35.49
71504;BME280;59323;50.874;7.028;2023-06-10T09:27:48;101049.63;;;31.40;34.21
71504;BME280;59323;50.874;7.028;2023-06-10T09:32:54;101043.00;;;31.43;32.75
71504;BME280;59323;50.874;7.028;2023-06-10T09:35:24;101047.28;;;31.33;33.04
71504;BME280;59323;50.874;7.028;2023-06-10T09:37:55;101046.59;;;31.44;34.13
71504;BME280;59323;50.874;7.028;2023-06-10T09:40:20;101042.09;;;31.63;32.34
71504;BME280;59323;50.874;7.028;2023-06-10T09:42:46;101041.78;;;31.56;31.63
71504;BME280;59323;50.874;7.028;2023-06-10T09:45:14;101039.50;;;31.60;31.93
71504;BME280;59323;50.874;7.028;2023-06-10T09:47:39;101041.00;;;31.49;31.69
71504;BME280;59323;50.874;7.028;2023-06-10T09:50:05;101038.69;;;31.48;32.22
71504;BME280;59323;50.874;7.028;2023-06-10T09:52:30;101030.75;;;31.46;31.88
71504;BME280;59323;50.874;7.028;2023-06-10T09:55:01;101036.16;;;31.56;32.61
71504;BME280;59323;50.874;7.028;2023-06-10T09:57:30;101033.38;;;31.61;32.32
71504;BME280;59323;50.874;7.028;2023-06-10T09:59:57;101033.69;;;31.69;30.87
71504;BME280;59323;50.874;7.028;2023-06-10T10:02:23;101030.97;;;31.85;31.71
71504;BME280;59323;50.874;7.028;2023-06-10T10:04:48;101024.78;;;31.70;30.28
71504;BME280;59323;50.874;7.028;2023-06-10T10:07:13;101027.16;;;31.89;32.84
71504;BME280;59323;50.874;7.028;2023-06-10T10:09:40;101023.34;;;31.97;31.16
71504;BME280;59323;50.874;7.028;2023-06-10T10:12:13;101028.31;;;32.36;31.62
71504;BME280;59323;50.874;7.028;2023-06-10T10:14:45;101026.81;;;32.57;31.13
71504;BME280;59323;50.874;7.028;2023-06-10T10:17:14;101026.81;;;32.74;30.83
71504;BME280;59323;50.874;7.028;2023-06-10T10:19:50;101026.06;;;32.62;29.58
71504;BME280;59323;50.874;7.028;2023-06-10T10:22:25;101021.44;;;32.76;31.05
71504;BME280;59323;50.874;7.028;2023-06-10T10:24:55;101021.72;;;32.95;31.22
71504;BME280;59323;50.874;7.028;2023-06-10T10:27:28;101019.94;;;32.86;30.44
71504;BME280;59323;50.874;7.028;2023-06-10T10:29:54;101014.56;;;32.83;30.29
71504;BME280;59323;50.874;7.028;2023-06-10T10:35:25;101010.16;;;32.26;28.74
71504;BME280;59323;50.874;7.028;2023-06-10T10:37:54;101018.78;;;32.16;30.21
71504;BME280;59323;50.874;7.028;2023-06-10T10:40:24;101011.91;;;32.17;29.92
71504;BME280;59323;50.874;7.028;2023-06-10T10:42:51;101016.47;;;32.04;28.22
71504;BME280;59323;50.874;7.028;2023-06-10T10:45:17;101012.53;;;31.79;28.19
71504;BME280;59323;50.874;7.028;2023-06-10T10:47:45;100999.84;;;31.95;28.20
71504;BME280;59323;50.874;7.028;2023-06-10T10:50:16;101002.97;;;32.25;28.46
71504;BME280;59323;50.874;7.028;2023-06-10T10:53:01;100998.16;;;32.47;29.18
71504;BME280;59323;50.874;7.028;2023-06-10T10:55:28;101002.22;;;32.35;28.42
71504;BME280;59323;50.874;7.028;2023-06-10T10:58:07;100998.84;;;32.20;28.23
71504;BME280;59323;50.874;7.028;2023-06-10T11:00:37;101000.38;;;32.10;27.98
71504;BME280;59323;50.874;7.028;2023-06-10T11:05:35;100985.06;;;32.22;28.41
71504;BME280;59323;50.874;7.028;2023-06-10T11:08:02;100982.28;;;32.39;27.11
71504;BME280;59323;50.874;7.028;2023-06-10T11:10:34;100983.28;;;32.25;25.91
71504;BME280;59323;50.874;7.028;2023-06-10T11:13:05;100976.66;;;32.28;26.00
71504;BME280;59323;50.874;7.028;2023-06-10T11:15:33;100975.88;;;32.27;25.30
71504;BME280;59323;50.874;7.028;2023-06-10T11:18:23;100983.50;;;32.21;25.26
71504;BME280;59323;50.874;7.028;2023-06-10T11:26:18;100971.75;;;32.23;24.63
71504;BME280;59323;50.874;7.028;2023-06-10T11:31:19;100983.06;;;32.39;25.51
71504;BME280;59323;50.874;7.028;2023-06-10T11:33:53;100963.81;;;32.21;25.43
71504;BME280;59323;50.874;7.028;2023-06-10T11:36:18;100970.25;;;32.27;25.46
71504;BME280;59323;50.874;7.028;2023-06-10T11:38:44;100962.59;;;32.44;25.68
71504;BME280;59323;50.874;7.028;2023-06-10T11:41:11;100965.66;;;32.46;24.52
71504;BME280;59323;50.874;7.028;2023-06-10T11:43:37;100967.66;;;32.24;26.22
71504;BME280;59323;50.874;7.028;2023-06-10T11:46:06;100963.59;;;32.30;25.11
71504;BME280;59323;50.874;7.028;2023-06-10T11:48:33;100957.97;;;32.47;25.55
71504;BME280;59323;50.874;7.028;2023-06-10T11:51:00;100952.88;;;32.57;25.64
71504;BME280;59323;50.874;7.028;2023-06-10T11:53:25;100961.56;;;32.31;25.93
71504;BME280;59323;50.874;7.028;2023-06-10T11:55:57;100952.06;;;32.23;26.88
71504;BME280;59323;50.874;7.028;2023-06-10T11:58:22;100950.06;;;32.34;26.17
71504;BME280;59323;50.874;7.028;2023-06-10T12:00:53;100958.25;;;32.32;25.17
71504;BME280;59323;50.874;7.028;2023-06-10T12:03:19;100941.31;;;32.15;25.04
71504;BME280;59323;50.874;7.028;2023-06-10T12:08:23;100943.47;;;31.67;25.54
71504;BME280;59323;50.874;7.028;2023-06-10T12:10:49;100940.53;;;31.28;26.76
71504;BME280;59323;50.874;7.028;2023-06-10T12:13:15;100942.91;;;31.03;26.80
71504;BME280;59323;50.874;7.028;2023-06-10T12:15:43;100944.84;;;31.23;26.28
71504;BME280;59323;50.874;7.028;2023-06-10T12:18:18;100940.34;;;31.42;25.96
71504;BME280;59323;50.874;7.028;2023-06-10T12:20:44;100936.81;;;31.59;25.33
71504;BME280;59323;50.874;7.028;2023-06-10T12:23:16;100919.63;;;31.34;24.70
71504;BME280;59323;50.874;7.028;2023-06-10T12:39:51;100920.00;;;31.70;22.82
71504;BME280;59323;50.874;7.028;2023-06-10T12:42:23;100912.88;;;31.85;23.83
71504;BME280;59323;50.874;7.028;2023-06-10T13:06:18;100907.31;;;32.08;24.18
71504;BME280;59323;50.874;7.028;2023-06-10T13:12:38;100912.19;;;32.07;23.78
71504;BME280;59323;50.874;7.028;2023-06-10T13:25:01;100904.28;;;31.30;23.27
71504;BME280;59323;50.874;7.028;2023-06-10T13:27:43;100906.13;;;31.49;24.79
71504;BME280;59323;50.874;7.028;2023-06-10T13:30:47;100889.81;;;31.65;23.91
71504;BME280;59323;50.874;7.028;2023-06-10T13:40:12;100887.13;;;32.04;24.59
71504;BME280;59323;50.874;7.028;2023-06-10T13:42:59;100899.03;;;31.65;24.64
71504;BME280;59323;50.874;7.028;2023-06-10T13:45:31;100905.84;;;31.36;24.96
71504;BME280;59323;50.874;7.028;2023-06-10T13:47:56;100913.53;;;30.99;24.74
71504;BME280;59323;50.874;7.028;2023-06-10T13:50:22;100902.66;;;30.69;25.57
71504;BME280;59323;50.874;7.028;2023-06-10T13:52:47;100900.63;;;30.44;25.87
71504;BME280;59323;50.874;7.028;2023-06-10T13:55:13;100898.59;;;30.13;26.49
71504;BME280;59323;50.874;7.028;2023-06-10T13:57:38;100893.81;;;29.93;26.48
71504;BME280;59323;50.874;7.028;2023-06-10T14:00:04;100892.16;;;29.81;27.28
71504;BME280;59323;50.874;7.028;2023-06-10T14:02:30;100887.81;;;29.80;27.14
71504;BME280;59323;50.874;7.028;2023-06-10T14:04:55;100889.81;;;30.00;26.90
71504;BME280;59323;50.874;7.028;2023-06-10T14:07:21;100883.66;;;30.21;26.56